Time;durP1;ratioP1;P1;durP2;ratioP2;P2;SDS_P1;SDS_P2;PMS_P1;PMS_P2;Temp;Humidity;BMP_temperature;BMP_pressure;BME280_temperature;BME280_humidity;BME280_pressure;Samples;Min_cycle;Max_cycle;Signal;HPM_P1;HPM_P2
2022/07/07 00:01:11;;;;;;;1.30;1.20;;;19.70;99.90;;;;;;5014792;28;20191;-81
2022/07/07 00:03:37;;;;;;;1.60;1.50;;;19.70;99.90;;;;;;5014457;28;20196;-82
2022/07/07 00:06:03;;;;;;;2.13;1.63;;;19.60;99.90;;;;;;5014539;28;20562;-86
2022/07/07 00:08:28;;;;;;;3.85;1.52;;;19.60;99.90;;;;;;5029359;28;20164;-86
2022/07/07 00:10:55;;;;;;;1.58;1.48;;;19.70;99.90;;;;;;5014465;28;20173;-81
2022/07/07 00:13:21;;;;;;;1.75;1.60;;;19.70;99.90;;;;;;5014657;28;20192;-82
2022/07/07 00:15:46;;;;;;;1.27;1.13;;;19.80;99.90;;;;;;5014357;28;20223;-81
2022/07/07 00:18:13;;;;;;;1.45;1.35;;;19.70;99.90;;;;;;5013100;28;20219;-82
2022/07/07 00:20:38;;;;;;;2.15;1.30;;;19.60;99.90;;;;;;5014641;28;20173;-81
2022/07/07 00:23:04;;;;;;;5.47;1.42;;;19.60;99.90;;;;;;5029912;28;20176;-81
2022/07/07 00:25:30;;;;;;;2.10;1.48;;;19.70;99.90;;;;;;5014280;28;20204;-82
2022/07/07 00:27:55;;;;;;;5.22;1.40;;;19.70;99.90;;;;;;5029411;28;20172;-84
2022/07/07 00:30:21;;;;;;;1.45;1.30;;;19.70;99.90;;;;;;5014418;28;20216;-81
2022/07/07 00:32:47;;;;;;;2.58;1.15;;;19.60;99.90;;;;;;5014252;28;20176;-86
2022/07/07 00:35:13;;;;;;;1.95;1.30;;;19.60;99.90;;;;;;5014143;28;20192;-81
2022/07/07 00:37:38;;;;;;;5.25;1.15;;;19.80;99.90;;;;;;5014003;28;20168;-81
2022/07/07 00:40:05;;;;;;;3.42;1.30;;;19.90;99.90;;;;;;5029340;28;20195;-85
2022/07/07 00:42:31;;;;;;;4.40;1.52;;;19.70;99.90;;;;;;5014147;28;20177;-82
2022/07/07 00:44:56;;;;;;;12.85;1.60;;;19.60;99.90;;;;;;5028930;28;20208;-87
2022/07/07 00:47:22;;;;;;;1.77;1.27;;;19.70;99.90;;;;;;5013690;28;20534;-81
2022/07/07 00:49:48;;;;;;;3.50;1.50;;;19.60;99.90;;;;;;5029003;28;20192;-86
2022/07/07 00:52:14;;;;;;;1.40;1.30;;;19.70;99.90;;;;;;5013708;28;20165;-81
2022/07/07 00:54:39;;;;;;;4.10;1.45;;;19.70;99.90;;;;;;5029576;28;20176;-87
2022/07/07 00:57:05;;;;;;;1.60;1.30;;;19.70;99.90;;;;;;5013506;28;20613;-81
2022/07/07 00:59:34;;;;;;;4.50;1.40;;;19.50;99.90;;;;;;5013643;28;20231;-86
2022/07/07 01:02:01;;;;;;;8.43;1.45;;;19.50;99.90;;;;;;5029088;28;20640;-82
2022/07/07 01:04:27;;;;;;;1.50;1.40;;;19.50;99.90;;;;;;5013616;28;20208;-82
2022/07/07 01:06:53;;;;;;;1.30;1.20;;;19.50;99.90;;;;;;5013765;28;20174;-83
2022/07/07 01:09:19;;;;;;;2.35;1.60;;;19.50;99.90;;;;;;5028727;28;20560;-82
2022/07/07 01:11:54;;;;;;;1.88;1.50;;;19.40;99.90;;;;;;5012054;28;20632;-82
2022/07/07 01:14:21;;;;;;;2.72;1.85;;;19.50;99.90;;;;;;5012332;28;20620;-81
2022/07/07 01:16:48;;;;;;;1.60;1.30;;;19.50;99.90;;;;;;5028592;28;20168;-81
2022/07/07 01:19:14;;;;;;;9.98;1.52;;;19.70;99.90;;;;;;5028595;28;20188;-82
2022/07/07 01:22:02;;;;;;;1.73;1.40;;;19.60;99.90;;;;;;5013455;28;20161;-84
2022/07/07 01:24:29;;;;;;;3.10;1.50;;;19.60;99.90;;;;;;5013013;28;20680;-86
2022/07/07 01:27:20;;;;;;;6.00;1.55;;;19.70;99.90;;;;;;5012894;28;20252;-82
2022/07/07 01:29:49;;;;;;;2.28;1.40;;;19.50;99.90;;;;;;5012294;28;20215;-87
2022/07/07 01:32:15;;;;;;;4.28;1.52;;;19.70;99.90;;;;;;5013487;28;20576;-81
2022/07/07 01:34:43;;;;;;;3.25;1.65;;;19.70;99.90;;;;;;5013232;28;20251;-82
2022/07/07 01:37:09;;;;;;;5.60;2.08;;;19.70;99.90;;;;;;5028376;28;20180;-81
2022/07/07 01:39:36;;;;;;;2.10;1.65;;;19.60;99.90;;;;;;5011913;28;20196;-81
2022/07/07 01:42:03;;;;;;;7.72;1.65;;;19.50;99.90;;;;;;5013251;28;20168;-85
2022/07/07 01:44:36;;;;;;;2.95;1.50;;;19.40;99.90;;;;;;5012711;28;20192;-86
2022/07/07 01:47:02;;;;;;;4.80;1.52;;;19.50;99.90;;;;;;5011771;28;20172;-86
2022/07/07 01:49:29;;;;;;;5.05;1.50;;;19.50;99.90;;;;;;5011454;28;20212;-82
2022/07/07 01:51:55;;;;;;;2.25;1.70;;;19.50;99.90;;;;;;5012949;28;20176;-86
2022/07/07 01:54:21;;;;;;;2.35;1.35;;;19.50;99.90;;;;;;5012888;28;20248;-81
2022/07/07 01:56:46;;;;;;;1.90;1.70;;;19.50;99.90;;;;;;5012950;28;20703;-87
2022/07/07 01:59:12;;;;;;;4.93;1.50;;;19.50;99.90;;;;;;5013068;28;20287;-81
2022/07/07 02:01:38;;;;;;;2.38;1.83;;;19.50;99.90;;;;;;5012966;28;20813;-84
2022/07/07 02:04:05;;;;;;;6.20;2.17;;;19.50;99.90;;;;;;5013261;28;20212;-87
2022/07/07 02:06:32;;;;;;;1.70;1.52;;;19.60;99.90;;;;;;5013082;28;20634;-81
2022/07/07 02:08:58;;;;;;;1.67;1.58;;;19.60;99.90;;;;;;5012638;28;20193;-82
2022/07/07 02:11:24;;;;;;;3.28;1.63;;;19.50;99.90;;;;;;5016556;28;20165;-84
2022/07/07 02:13:51;;;;;;;2.72;1.73;;;19.60;99.90;;;;;;5016327;28;20188;-85
2022/07/07 02:16:19;;;;;;;5.43;1.80;;;19.60;99.90;;;;;;5032053;28;20176;-87
2022/07/07 02:18:46;;;;;;;3.30;1.80;;;19.50;99.90;;;;;;5032167;28;20188;-82
2022/07/07 02:21:13;;;;;;;3.38;2.03;;;19.50;99.90;;;;;;5015471;28;20179;-81
2022/07/07 02:23:43;;;;;;;1.67;1.52;;;19.40;99.90;;;;;;5016631;28;20176;-85
2022/07/07 02:26:09;;;;;;;2.33;1.60;;;19.40;99.90;;;;;;5016495;28;20517;-84
2022/07/07 02:28:35;;;;;;;3.63;1.95;;;19.50;99.90;;;;;;5031649;28;20673;-84
2022/07/07 02:31:00;;;;;;;3.55;1.73;;;19.40;99.90;;;;;;5031524;28;20556;-84
2022/07/07 02:33:27;;;;;;;2.63;2.00;;;19.40;99.90;;;;;;5015174;28;20169;-82
2022/07/07 02:35:53;;;;;;;4.18;2.10;;;19.40;99.90;;;;;;5031671;28;20179;-86
2022/07/07 02:38:20;;;;;;;3.20;1.70;;;19.50;99.90;;;;;;5015172;28;20184;-87
2022/07/07 02:40:46;;;;;;;1.77;1.63;;;19.40;99.90;;;;;;5014798;28;20193;-82
2022/07/07 02:43:12;;;;;;;2.50;2.00;;;19.30;99.90;;;;;;5016389;28;20168;-88
2022/07/07 02:45:49;;;;;;;7.20;1.95;;;19.30;99.90;;;;;;5031525;28;20212;-82
2022/07/07 02:48:17;;;;;;;3.33;2.15;;;19.40;99.90;;;;;;5015920;28;20621;-82
2022/07/07 02:50:43;;;;;;;1.85;1.75;;;19.50;99.90;;;;;;5016307;28;20255;-83
2022/07/07 02:53:10;;;;;;;3.75;2.05;;;19.40;99.90;;;;;;5016173;28;20219;-86
2022/07/07 02:55:36;;;;;;;5.97;2.55;;;19.40;99.90;;;;;;5015843;28;20683;-87
2022/07/07 02:58:02;;;;;;;4.10;2.30;;;19.30;99.90;;;;;;5030632;28;20259;-83
2022/07/07 03:00:29;;;;;;;3.78;2.15;;;19.30;99.90;;;;;;5015853;28;20188;-82
2022/07/07 03:02:55;;;;;;;5.13;1.90;;;19.30;99.90;;;;;;5015920;28;20176;-83
2022/07/07 03:05:24;;;;;;;2.65;2.38;;;19.30;99.90;;;;;;5015498;28;20291;-82
2022/07/07 03:07:50;;;;;;;5.93;2.25;;;19.40;99.90;;;;;;5015445;28;20169;-82
2022/07/07 03:10:15;;;;;;;5.10;2.30;;;19.40;99.90;;;;;;5015033;28;20196;-86
2022/07/07 03:12:41;;;;;;;4.93;2.30;;;19.40;99.90;;;;;;5015017;28;20164;-81
2022/07/07 03:15:08;;;;;;;5.47;2.30;;;19.30;99.90;;;;;;5014808;28;20190;-81
2022/07/07 03:17:34;;;;;;;4.72;1.90;;;19.30;99.90;;;;;;5015960;28;20168;-81
2022/07/07 03:20:00;;;;;;;3.03;2.13;;;19.30;99.90;;;;;;5015505;28;20188;-82
2022/07/07 03:22:26;;;;;;;2.50;2.30;;;19.30;99.90;;;;;;5015720;28;20176;-81
2022/07/07 03:24:51;;;;;;;2.63;1.90;;;19.30;99.90;;;;;;5015163;28;20672;-81
2022/07/07 03:27:17;;;;;;;2.13;1.92;;;19.30;99.90;;;;;;5015596;28;20645;-82
2022/07/07 03:29:43;;;;;;;5.80;2.45;;;19.40;99.90;;;;;;5015382;28;20661;-82
2022/07/07 03:32:09;;;;;;;4.10;1.95;;;19.50;99.90;;;;;;5015408;28;20169;-81
2022/07/07 03:34:35;;;;;;;3.17;2.08;;;19.40;99.90;;;;;;5030957;28;20164;-81
2022/07/07 03:37:01;;;;;;;5.72;1.75;;;19.30;99.90;;;;;;5016218;28;20264;-83
2022/07/07 03:39:27;;;;;;;5.18;2.33;;;19.30;99.90;;;;;;5014713;28;20578;-81
2022/07/07 03:41:52;;;;;;;3.25;1.95;;;19.40;99.90;;;;;;5014712;28;20693;-82
2022/07/07 03:44:18;;;;;;;4.72;1.92;;;19.40;99.90;;;;;;5014739;28;20291;-85
2022/07/07 03:46:44;;;;;;;4.55;2.08;;;19.40;99.90;;;;;;5014916;28;20629;-86
2022/07/07 03:49:10;;;;;;;2.67;1.77;;;19.30;99.90;;;;;;5030163;28;20204;-82
2022/07/07 03:51:36;;;;;;;4.80;2.10;;;19.30;99.90;;;;;;5013922;28;20188;-86
2022/07/07 03:54:02;;;;;;;8.23;1.98;;;19.30;99.90;;;;;;5015179;28;20259;-81
2022/07/07 03:56:28;;;;;;;4.18;1.90;;;19.30;99.90;;;;;;5029919;28;20176;-83
2022/07/07 03:58:54;;;;;;;7.15;1.90;;;19.20;99.90;;;;;;5014916;28;20180;-81
2022/07/07 04:01:19;;;;;;;5.97;2.10;;;19.10;99.90;;;;;;5014872;28;20176;-83
2022/07/07 04:03:45;;;;;;;3.75;2.00;;;19.10;99.90;;;;;;5014911;28;20164;-83
2022/07/07 04:06:10;;;;;;;2.38;1.77;;;19.20;99.90;;;;;;5014559;28;20546;-82
2022/07/07 04:08:36;;;;;;;2.80;1.65;;;19.10;99.90;;;;;;5014146;28;20227;-81
2022/07/07 04:11:02;;;;;;;3.78;1.65;;;19.10;99.90;;;;;;5029778;28;20172;-82
2022/07/07 04:13:28;;;;;;;16.35;2.17;;;19.10;99.90;;;;;;5013505;28;20286;-82
2022/07/07 04:15:55;;;;;;;3.78;1.50;;;19.10;99.90;;;;;;5014220;28;20188;-80
2022/07/07 04:18:21;;;;;;;4.53;1.30;;;19.10;99.90;;;;;;5014351;28;20523;-81
2022/07/07 04:20:47;;;;;;;6.25;1.40;;;19.10;99.90;;;;;;5014016;28;20172;-81
2022/07/07 04:23:12;;;;;;;1.70;1.13;;;19.10;99.90;;;;;;5029313;28;20235;-82
2022/07/07 04:25:38;;;;;;;2.28;1.17;;;19.10;99.90;;;;;;5013971;28;20211;-80
2022/07/07 04:28:04;;;;;;;1.70;1.20;;;19.20;99.90;;;;;;5029452;28;20578;-81
2022/07/07 04:30:29;;;;;;;4.55;1.27;;;19.20;99.90;;;;;;5014096;28;20188;-81
2022/07/07 04:32:55;;;;;;;9.63;0.93;;;19.20;99.90;;;;;;5013640;28;20531;-82
2022/07/07 04:35:21;;;;;;;6.85;1.25;;;19.10;99.90;;;;;;5029024;28;20180;-79
2022/07/07 04:37:46;;;;;;;1.27;1.15;;;18.70;99.90;;;;;;5013735;28;20252;-81
2022/07/07 04:40:12;;;;;;;6.85;1.15;;;18.50;99.90;;;;;;5013496;28;20224;-87
2022/07/07 04:42:38;;;;;;;1.60;1.50;;;18.40;99.90;;;;;;5029164;28;20177;-81
2022/07/07 04:45:04;;;;;;;3.53;1.20;;;18.30;99.90;;;;;;5013853;28;20247;-85
2022/07/07 04:47:29;;;;;;;2.08;1.45;;;18.20;99.90;;;;;;5014476;28;20169;-80
2022/07/07 04:49:55;;;;;;;1.67;1.58;;;18.20;99.90;;;;;;5012535;28;20193;-85
2022/07/07 04:52:21;;;;;;;2.20;1.30;;;18.30;99.90;;;;;;5013854;28;20187;-81
2022/07/07 04:54:46;;;;;;;5.97;1.55;;;18.40;99.90;;;;;;5013840;28;20179;-82
2022/07/07 04:57:12;;;;;;;6.38;1.55;;;18.60;99.90;;;;;;5013647;28;20191;-82
2022/07/07 04:59:40;;;;;;;2.50;1.15;;;18.70;99.90;;;;;;5012958;28;20207;-79
2022/07/07 05:02:06;;;;;;;3.05;1.23;;;18.90;99.90;;;;;;5013398;28;20171;-86
2022/07/07 05:04:32;;;;;;;2.00;1.38;;;19.00;99.90;;;;;;5013118;28;20199;-80
2022/07/07 05:06:58;;;;;;;2.15;1.30;;;19.00;99.90;;;;;;5028439;28;20187;-80
2022/07/07 05:09:23;;;;;;;3.75;1.10;;;19.20;99.90;;;;;;5028515;28;20242;-81
2022/07/07 05:11:49;;;;;;;6.63;1.40;;;19.20;99.90;;;;;;5013339;28;20230;-82
2022/07/07 05:14:15;;;;;;;1.45;1.20;;;19.20;99.90;;;;;;5013496;28;20657;-87
2022/07/07 05:16:40;;;;;;;2.95;1.00;;;19.10;99.90;;;;;;5013534;28;20580;-87
2022/07/07 05:19:09;;;;;;;1.85;1.20;;;19.10;99.90;;;;;;5013372;28;20239;-83
2022/07/07 05:21:34;;;;;;;1.73;1.02;;;19.10;99.90;;;;;;5013424;28;20167;-88
2022/07/07 05:24:00;;;;;;;2.40;1.42;;;19.20;99.90;;;;;;5013377;28;20168;-81
2022/07/07 05:26:26;;;;;;;4.18;0.85;;;19.20;99.90;;;;;;5028478;28;20211;-80
2022/07/07 05:28:51;;;;;;;2.53;1.00;;;19.10;99.90;;;;;;5012863;28;20223;-83
2022/07/07 05:31:17;;;;;;;1.60;1.00;;;19.20;99.90;;;;;;5013037;28;20208;-81
2022/07/07 05:33:43;;;;;;;2.50;1.15;;;19.20;99.90;;;;;;5028236;28;20168;-83
2022/07/07 05:36:09;;;;;;;2.85;1.30;;;19.30;99.90;;;;;;5012831;28;20177;-83
2022/07/07 05:38:35;;;;;;;3.85;0.85;;;19.30;99.90;;;;;;5013230;28;20184;-84
2022/07/07 05:41:01;;;;;;;6.45;1.02;;;19.20;99.90;;;;;;5013960;28;20181;-78
2022/07/07 05:43:27;;;;;;;4.13;1.05;;;19.20;99.90;;;;;;5012473;28;20630;-82
2022/07/07 05:45:53;;;;;;;7.88;1.27;;;19.20;99.90;;;;;;5026580;28;20218;-82
2022/07/07 05:48:20;;;;;;;4.55;1.88;;;19.20;99.90;;;;;;5012232;28;20168;-83
2022/07/07 05:50:45;;;;;;;2.83;1.48;;;19.00;99.90;;;;;;5027978;28;20180;-81
2022/07/07 05:53:11;;;;;;;6.25;1.08;;;18.70;99.90;;;;;;5028138;28;20169;-81
2022/07/07 05:55:37;;;;;;;1.17;0.82;;;18.40;99.90;;;;;;5018922;28;20168;-81
2022/07/07 05:58:03;;;;;;;1.80;0.70;;;18.30;99.90;;;;;;5023445;28;20219;-81
2022/07/07 06:00:28;;;;;;;4.60;0.77;;;18.20;99.90;;;;;;5047384;28;20189;-82
2022/07/07 06:02:54;;;;;;;2.10;0.77;;;18.20;99.90;;;;;;5037432;28;20169;-82
2022/07/07 06:05:20;;;;;;;1.45;0.85;;;17.90;99.90;;;;;;5021979;28;20255;-82
2022/07/07 06:07:46;;;;;;;0.95;0.63;;;17.80;99.90;;;;;;5046983;28;20172;-85
2022/07/07 06:10:14;;;;;;;1.00;0.60;;;17.80;99.90;;;;;;5029135;28;20193;-86
2022/07/07 06:12:43;;;;;;;0.63;0.63;;;17.80;99.90;;;;;;5013109;28;20161;-84
2022/07/07 06:15:09;;;;;;;5.55;0.60;;;17.90;99.90;;;;;;5027880;28;20545;-82
2022/07/07 06:17:35;;;;;;;5.13;0.80;;;18.00;99.90;;;;;;5011779;28;20255;-88
2022/07/07 06:20:01;;;;;;;2.58;0.88;;;18.10;99.90;;;;;;5010876;28;20280;-81
2022/07/07 06:22:27;;;;;;;17.42;1.10;;;18.20;99.90;;;;;;5012812;28;20165;-87
2022/07/07 06:24:53;;;;;;;6.20;1.00;;;18.40;99.90;;;;;;5027901;28;20302;-87
2022/07/07 06:27:20;;;;;;;1.20;0.50;;;18.60;99.90;;;;;;5028367;28;20199;-82
2022/07/07 06:29:47;;;;;;;20.75;2.15;;;18.90;99.90;;;;;;5013445;28;20194;-93
2022/07/07 06:32:15;;;;;;;4.53;1.35;;;19.00;99.90;;;;;;5028379;28;20202;-83
2022/07/07 06:34:41;;;;;;;3.17;0.50;;;19.00;99.90;;;;;;5012589;28;20173;-82
2022/07/07 06:37:07;;;;;;;6.05;0.47;;;18.50;99.90;;;;;;5027798;28;20544;-82
2022/07/07 06:39:33;;;;;;;3.55;0.60;;;18.60;99.90;;;;;;5027076;28;20184;-85
2022/07/07 06:41:59;;;;;;;1.85;0.63;;;18.70;99.90;;;;;;5028037;28;20168;-85
2022/07/07 06:44:30;;;;;;;6.78;1.05;;;18.90;99.90;;;;;;5013094;28;20211;-84
2022/07/07 06:46:59;;;;;;;4.25;0.50;;;19.40;99.90;;;;;;5030283;28;20582;-83
2022/07/07 06:49:27;;;;;;;3.13;0.45;;;19.50;99.90;;;;;;5028182;28;20180;-83
2022/07/07 06:51:53;;;;;;;6.95;0.85;;;19.50;99.90;;;;;;5030267;28;20187;-84
2022/07/07 06:54:19;;;;;;;0.93;0.60;;;19.60;99.90;;;;;;5030121;28;20675;-88
2022/07/07 06:56:45;;;;;;;1.88;0.80;;;19.80;99.90;;;;;;5017184;28;20161;-87
2022/07/07 06:59:11;;;;;;;12.98;1.73;;;19.80;99.90;;;;;;5031911;28;20568;-84
2022/07/07 07:01:37;;;;;;;6.63;0.95;;;19.70;99.90;;;;;;5032625;28;20173;-83
2022/07/07 07:04:02;;;;;;;2.13;0.85;;;19.10;99.90;;;;;;5031276;28;20176;-88
2022/07/07 07:06:28;;;;;;;4.47;1.13;;;19.10;99.90;;;;;;5015232;28;20183;-84
2022/07/07 07:08:55;;;;;;;2.85;1.10;;;19.50;99.90;;;;;;5016026;28;20267;-83
2022/07/07 07:11:20;;;;;;;2.63;0.73;;;19.80;99.90;;;;;;5031705;28;20214;-84
2022/07/07 07:13:47;;;;;;;5.07;0.90;;;19.80;99.90;;;;;;5015856;28;20260;-83
2022/07/07 07:16:15;;;;;;;2.08;0.95;;;19.70;99.90;;;;;;5031365;28;20165;-87
2022/07/07 07:18:41;;;;;;;1.95;0.80;;;19.80;99.90;;;;;;5031320;28;20203;-84
2022/07/07 07:21:06;;;;;;;2.65;0.80;;;19.80;99.90;;;;;;5014478;28;20161;-84
2022/07/07 07:23:32;;;;;;;4.30;1.10;;;20.00;99.90;;;;;;5014845;28;20682;-84
2022/07/07 07:25:58;;;;;;;4.03;1.02;;;20.00;99.90;;;;;;5031109;28;20200;-85
2022/07/07 07:28:24;;;;;;;7.80;1.10;;;20.00;99.90;;;;;;5031102;28;20164;-83
2022/07/07 07:30:49;;;;;;;5.72;0.68;;;20.10;99.90;;;;;;5030940;28;20176;-82
2022/07/07 07:33:15;;;;;;;11.48;0.60;;;20.30;99.90;;;;;;5030976;28;20192;-85
2022/07/07 07:35:41;;;;;;;4.05;0.90;;;20.50;99.90;;;;;;5015535;28;20239;-84
2022/07/07 07:38:06;;;;;;;47.72;1.70;;;20.40;99.90;;;;;;5031034;28;20168;-82
2022/07/07 07:40:32;;;;;;;25.67;1.58;;;19.80;99.90;;;;;;5030560;28;20201;-83
2022/07/07 07:42:58;;;;;;;9.57;0.70;;;19.80;99.90;;;;;;5030378;28;20273;-82
2022/07/07 07:45:24;;;;;;;7.65;1.30;;;19.70;99.90;;;;;;5030527;28;20564;-82
2022/07/07 07:47:49;;;;;;;9.10;1.08;;;19.80;99.90;;;;;;5031626;28;20173;-88
2022/07/07 07:50:17;;;;;;;5.70;1.10;;;19.90;99.90;;;;;;5031694;28;20189;-87
2022/07/07 07:52:44;;;;;;;23.23;2.55;;;20.30;99.90;;;;;;5030808;28;20177;-84
2022/07/07 07:55:11;;;;;;;45.70;2.10;;;20.50;99.90;;;;;;5014158;28;20540;-83
2022/07/07 07:57:37;;;;;;;27.55;1.08;;;20.30;99.90;;;;;;5031221;28;20168;-87
2022/07/07 08:00:08;;;;;;;2.83;1.00;;;20.00;99.90;;;;;;5031618;28;20203;-87
2022/07/07 08:02:34;;;;;;;32.45;1.88;;;19.80;99.90;;;;;;5031379;28;20180;-87
2022/07/07 08:05:00;;;;;;;12.00;1.10;;;19.70;99.90;;;;;;5031219;28;20209;-87
2022/07/07 08:07:25;;;;;;;29.35;1.15;;;19.70;99.90;;;;;;5015001;28;20199;-87
2022/07/07 08:09:51;;;;;;;6.88;0.90;;;19.90;99.90;;;;;;5031602;28;20203;-87
2022/07/07 08:12:16;;;;;;;22.17;0.80;;;20.20;99.90;;;;;;5031333;28;20614;-88
2022/07/07 08:14:42;;;;;;;21.40;1.30;;;20.50;99.90;;;;;;5031320;28;20315;-87
2022/07/07 08:17:08;;;;;;;2.40;0.60;;;21.10;99.90;;;;;;5031514;28;20667;-87
2022/07/07 08:19:33;;;;;;;3.00;0.90;;;21.70;99.90;;;;;;5031109;28;20191;-88
2022/07/07 08:21:59;;;;;;;7.20;1.25;;;22.30;99.90;;;;;;5014786;28;20307;-88
2022/07/07 08:24:25;;;;;;;1.25;0.73;;;22.20;99.90;;;;;;5031388;28;20207;-87
2022/07/07 08:26:52;;;;;;;7.22;1.02;;;21.80;99.90;;;;;;5031219;28;20211;-87
2022/07/07 08:29:17;;;;;;;4.03;1.00;;;21.50;99.90;;;;;;5030613;28;20184;-85
2022/07/07 08:31:43;;;;;;;8.02;0.70;;;21.20;99.90;;;;;;5029477;28;20624;-83
2022/07/07 08:34:08;;;;;;;3.67;0.85;;;21.10;99.90;;;;;;5014375;28;20165;-82
2022/07/07 08:36:34;;;;;;;5.70;0.70;;;20.60;99.90;;;;;;5020399;28;20161;-82
2022/07/07 08:39:00;;;;;;;3.50;0.90;;;20.40;99.90;;;;;;5049495;28;20251;-82
2022/07/07 08:41:26;;;;;;;7.93;0.80;;;21.00;99.90;;;;;;5030231;28;20243;-81
2022/07/07 08:43:52;;;;;;;4.72;0.82;;;21.40;99.90;;;;;;5014151;28;20165;-81
2022/07/07 08:46:18;;;;;;;3.83;0.60;;;21.10;99.90;;;;;;5014410;28;20231;-85
2022/07/07 08:48:44;;;;;;;3.28;0.82;;;21.10;99.90;;;;;;5030728;28;20279;-85
2022/07/07 08:51:10;;;;;;;9.15;0.60;;;20.70;99.90;;;;;;5030377;28;20184;-83
2022/07/07 08:53:37;;;;;;;4.78;0.85;;;20.50;99.90;;;;;;5029112;28;20168;-84
2022/07/07 08:56:07;;;;;;;1.00;0.50;;;19.70;99.90;;;;;;5028587;28;20264;-81
2022/07/07 08:58:35;;;;;;;4.22;0.70;;;19.20;99.90;;;;;;5013592;28;20625;-81
2022/07/07 09:01:05;;;;;;;1.02;0.40;;;19.10;99.90;;;;;;5013538;28;20173;-89
2022/07/07 09:03:31;;;;;;;7.10;0.75;;;19.30;99.90;;;;;;5028953;28;20172;-83
2022/07/07 09:05:57;;;;;;;3.40;0.50;;;19.40;99.90;;;;;;5013958;28;20273;-83
2022/07/07 09:08:25;;;;;;;1.60;0.52;;;19.50;99.90;;;;;;5028696;28;20172;-82
2022/07/07 09:10:51;;;;;;;1.90;0.60;;;19.60;99.90;;;;;;5028919;28;20176;-83
2022/07/07 09:13:25;;;;;;;2.42;0.68;;;20.00;99.90;;;;;;5013759;28;20169;-83
2022/07/07 09:15:53;;;;;;;0.55;0.40;;;20.50;99.90;;;;;;5013364;28;20215;-84
2022/07/07 09:18:37;;;;;;;0.98;0.40;;;20.60;99.90;;;;;;5013140;28;20838;-81
2022/07/07 09:21:06;;;;;;;5.43;0.47;;;20.60;99.90;;;;;;5028833;28;20211;-84
2022/07/07 09:23:32;;;;;;;4.78;0.50;;;20.90;99.90;;;;;;5013342;28;20172;-83
2022/07/07 09:25:59;;;;;;;0.95;0.30;;;20.80;99.90;;;;;;5028625;28;20235;-84
2022/07/07 09:28:26;;;;;;;0.20;0.20;;;20.90;99.90;;;;;;5028890;28;20621;-83
2022/07/07 09:30:53;;;;;;;1.60;0.50;;;21.10;99.90;;;;;;5013599;28;20164;-85
2022/07/07 09:33:21;;;;;;;0.63;0.40;;;21.10;99.90;;;;;;5014135;28;20243;-82
2022/07/07 09:38:34;;;;;;;12.52;0.63;;;21.50;99.90;;;;;;5014285;28;20288;-86
2022/07/07 09:41:20;;;;;;;1.75;0.30;;;21.00;99.90;;;;;;5028668;28;20641;-83
2022/07/07 09:43:53;;;;;;;6.13;0.70;;;20.60;99.90;;;;;;5013023;28;20195;-86
2022/07/07 09:46:27;;;;;;;3.53;0.70;;;20.50;99.90;;;;;;5013562;28;20176;-84
2022/07/07 09:48:57;;;;;;;1.23;0.57;;;20.20;99.90;;;;;;5013765;28;20223;-83
2022/07/07 09:51:25;;;;;;;1.27;0.60;;;19.80;99.90;;;;;;5028637;28;20172;-85
2022/07/07 09:54:04;;;;;;;3.85;0.75;;;19.40;99.90;;;;;;5013635;28;20171;-84
2022/07/07 09:56:37;;;;;;;1.95;0.65;;;19.50;99.90;;;;;;5028782;28;20176;-84
2022/07/07 09:59:06;;;;;;;0.70;0.40;;;19.40;99.90;;;;;;5029933;28;20200;-82
2022/07/07 10:01:34;;;;;;;2.22;0.57;;;19.70;99.90;;;;;;5017235;28;20228;-81
2022/07/07 10:04:03;;;;;;;3.35;0.63;;;19.80;99.90;;;;;;5033189;28;20165;-81
2022/07/07 10:06:30;;;;;;;0.88;0.52;;;19.70;99.90;;;;;;5015332;28;20181;-79
2022/07/07 10:09:00;;;;;;;4.05;0.98;;;19.70;99.90;;;;;;5017358;28;20180;-83
2022/07/07 10:11:34;;;;;;;1.08;0.30;;;19.80;99.90;;;;;;5016521;28;20165;-80
2022/07/07 10:14:07;;;;;;;1.15;0.60;;;19.90;99.90;;;;;;5015161;28;20649;-80
2022/07/07 10:16:33;;;;;;;9.25;1.02;;;20.00;99.90;;;;;;5015294;28;20251;-85
2022/07/07 10:19:00;;;;;;;2.25;0.57;;;20.10;99.90;;;;;;5013219;28;20223;-85
2022/07/07 10:21:26;;;;;;;0.73;0.45;;;20.00;99.90;;;;;;5014594;28;20172;-83
2022/07/07 10:23:53;;;;;;;5.78;0.30;;;20.30;99.90;;;;;;5014588;28;20197;-86
2022/07/07 10:26:35;;;;;;;5.05;0.98;;;20.00;99.90;;;;;;5015169;28;20672;-81
2022/07/07 10:29:00;;;;;;;3.50;0.50;;;19.80;99.90;;;;;;5023938;28;20263;-87
2022/07/07 10:31:28;;;;;;;1.25;0.60;;;19.80;99.90;;;;;;5021537;28;20176;-85
2022/07/07 10:34:08;;;;;;;3.90;0.32;;;20.00;99.90;;;;;;5034319;28;20651;-84
2022/07/07 10:36:46;;;;;;;3.75;0.57;;;20.30;99.90;;;;;;5016536;28;20707;-85
2022/07/07 10:39:13;;;;;;;2.40;0.75;;;20.50;99.90;;;;;;5032210;28;20188;-85
2022/07/07 10:41:40;;;;;;;3.20;0.75;;;20.40;99.90;;;;;;5017427;28;20188;-84
2022/07/07 10:44:09;;;;;;;2.95;0.70;;;20.10;99.90;;;;;;5017844;28;20227;-86
2022/07/07 10:46:36;;;;;;;3.85;1.23;;;19.80;99.90;;;;;;5032309;28;20704;-82
2022/07/07 10:49:11;;;;;;;1.63;0.70;;;19.50;99.90;;;;;;5017924;28;20187;-85
2022/07/07 10:51:53;;;;;;;0.85;0.50;;;19.30;99.90;;;;;;5017908;28;20179;-84
2022/07/07 10:54:48;;;;;;;11.00;0.75;;;19.40;99.90;;;;;;5018183;28;20168;-80
2022/07/07 10:57:22;;;;;;;4.57;0.70;;;19.70;99.90;;;;;;5016830;28;20259;-83
2022/07/07 11:00:01;;;;;;;3.40;0.63;;;19.70;99.90;;;;;;5016942;28;20692;-84
2022/07/07 11:02:51;;;;;;;1.85;0.60;;;20.00;99.90;;;;;;5032445;28;20637;-85
2022/07/07 11:05:16;;;;;;;2.30;0.73;;;20.60;99.90;;;;;;5032077;28;20218;-83
2022/07/07 11:08:03;;;;;;;0.50;0.38;;;21.00;99.90;;;;;;5032263;28;20681;-86
2022/07/07 11:10:47;;;;;;;3.50;0.80;;;21.40;99.90;;;;;;5017753;28;20228;-84
2022/07/07 11:13:28;;;;;;;0.82;0.50;;;21.50;99.90;;;;;;5028700;28;20164;-79
2022/07/07 11:16:21;;;;;;;2.42;0.70;;;21.40;99.90;;;;;;5038155;28;20203;-83
2022/07/07 11:18:58;;;;;;;1.23;0.50;;;21.20;99.90;;;;;;5053208;28;20176;-80
2022/07/07 11:21:44;;;;;;;5.32;0.50;;;21.00;99.90;;;;;;5016905;28;20176;-81
2022/07/07 11:24:23;;;;;;;10.68;0.60;;;20.60;99.90;;;;;;5014728;28;20232;-81
2022/07/07 11:27:01;;;;;;;1.50;0.77;;;20.10;99.90;;;;;;5030869;28;20196;-81
2022/07/07 11:29:28;;;;;;;6.97;0.98;;;19.80;99.90;;;;;;5015596;28;20661;-81
2022/07/07 11:32:08;;;;;;;3.45;0.88;;;19.40;99.90;;;;;;5015253;28;20222;-79
2022/07/07 11:34:41;;;;;;;3.03;0.93;;;19.20;99.90;;;;;;5016534;28;20187;-82
2022/07/07 11:37:22;;;;;;;5.93;1.27;;;19.60;99.90;;;;;;5016285;28;20156;-82
2022/07/07 11:39:47;;;;;;;2.50;0.77;;;20.20;99.90;;;;;;5015110;28;20191;-82
2022/07/07 11:42:13;;;;;;;1.50;0.60;;;20.40;99.90;;;;;;5015450;28;20169;-81
2022/07/07 11:44:39;;;;;;;6.45;0.52;;;20.60;99.90;;;;;;5015899;28;20204;-82
2022/07/07 11:47:05;;;;;;;0.98;0.52;;;21.20;99.90;;;;;;5015290;28;20210;-82
2022/07/07 11:49:30;;;;;;;0.70;0.50;;;21.70;99.90;;;;;;5030849;28;20192;-81
2022/07/07 11:51:56;;;;;;;1.35;0.50;;;22.20;99.90;;;;;;5015180;28;20179;-82
2022/07/07 11:54:22;;;;;;;2.30;0.65;;;22.40;99.90;;;;;;5014701;28;20173;-83
2022/07/07 11:56:47;;;;;;;2.20;0.55;;;22.00;99.90;;;;;;5014533;28;20532;-81
2022/07/07 11:59:13;;;;;;;2.90;0.70;;;21.40;99.90;;;;;;5014223;28;20228;-82
2022/07/07 12:01:40;;;;;;;8.80;1.40;;;20.90;99.90;;;;;;5014479;28;20564;-82
2022/07/07 12:04:22;;;;;;;7.05;0.73;;;20.70;99.90;;;;;;5014093;28;20172;-82
2022/07/07 12:06:48;;;;;;;1.13;0.60;;;20.30;99.90;;;;;;5014453;28;20647;-82
2022/07/07 12:09:16;;;;;;;13.55;1.10;;;19.70;99.90;;;;;;5014635;28;20180;-83
2022/07/07 12:11:43;;;;;;;3.75;0.60;;;19.30;99.90;;;;;;5014239;28;20219;-82
2022/07/07 12:14:10;;;;;;;3.10;0.90;;;19.00;99.90;;;;;;5013983;28;20545;-82
2022/07/07 12:16:43;;;;;;;1.40;0.70;;;19.10;99.90;;;;;;5029671;28;20194;-82
2022/07/07 12:19:09;;;;;;;10.85;1.17;;;19.50;99.90;;;;;;5014268;28;20272;-81
2022/07/07 12:21:46;;;;;;;3.72;0.75;;;20.00;99.90;;;;;;5014108;28;20172;-82
2022/07/07 12:24:16;;;;;;;6.57;1.25;;;20.70;99.90;;;;;;5014075;28;20255;-83
2022/07/07 12:26:49;;;;;;;2.88;0.75;;;21.20;99.90;;;;;;5013277;28;20207;-82
2022/07/07 12:29:16;;;;;;;7.70;0.52;;;21.00;99.90;;;;;;5014369;28;20599;-84
2022/07/07 12:31:42;;;;;;;1.17;0.60;;;21.20;99.90;;;;;;5014397;28;20176;-82
2022/07/07 12:34:12;;;;;;;2.65;0.70;;;21.00;99.90;;;;;;5014087;28;20252;-79
2022/07/07 12:36:40;;;;;;;2.55;0.60;;;20.80;99.90;;;;;;5014202;28;20168;-83
2022/07/07 12:39:06;;;;;;;4.07;0.50;;;21.00;99.90;;;;;;5014114;28;20196;-82
2022/07/07 12:41:34;;;;;;;5.28;0.57;;;21.60;99.90;;;;;;5013944;28;20656;-82
2022/07/07 12:44:23;;;;;;;3.67;0.82;;;21.90;99.90;;;;;;5013735;28;20218;-80
2022/07/07 12:46:49;;;;;;;2.60;0.52;;;22.30;99.90;;;;;;5014067;28;20184;-81
2022/07/07 12:49:16;;;;;;;3.22;0.52;;;22.00;99.90;;;;;;5013583;28;20184;-82
2022/07/07 12:51:45;;;;;;;2.30;1.08;;;21.70;99.90;;;;;;5013990;28;20172;-82